createdAt,value
2018-09-10T00:00:59.929Z,90.40
2018-09-10T00:03:28.888Z,90.40
2018-09-10T00:05:58.092Z,91.20
2018-09-10T00:08:27.077Z,90.80
2018-09-10T00:10:56.052Z,91.20
2018-09-10T00:13:25.118Z,91.00
2018-09-10T00:15:54.159Z,91.10
2018-09-10T00:18:23.156Z,91.20
2018-09-10T00:20:52.127Z,91.40
2018-09-10T00:23:21.132Z,92.00
2018-09-10T00:25:50.116Z,91.70
2018-09-10T00:28:19.163Z,91.40
2018-09-10T00:30:48.161Z,90.90
2018-09-10T00:33:17.173Z,89.80
2018-09-10T00:35:46.139Z,90.00
2018-09-10T00:38:15.133Z,90.60
2018-09-10T00:40:44.143Z,90.80
2018-09-10T00:43:13.211Z,90.90
2018-09-10T00:45:42.207Z,91.10
2018-09-10T00:48:11.202Z,91.30
2018-09-10T00:50:40.191Z,91.30
2018-09-10T00:53:09.328Z,91.60
2018-09-10T00:55:38.267Z,91.60
2018-09-10T00:58:07.252Z,91.20
2018-09-10T01:00:36.222Z,91.30
2018-09-10T01:03:05.237Z,91.30
2018-09-10T01:05:34.202Z,91.50
2018-09-10T01:08:03.253Z,91.70
2018-09-10T01:10:32.243Z,91.80
2018-09-10T01:13:01.256Z,92.00
2018-09-10T01:15:30.385Z,92.20
2018-09-10T01:17:59.379Z,92.40
2018-09-10T01:20:28.368Z,92.50
2018-09-10T01:22:57.359Z,92.60
2018-09-10T01:25:26.349Z,92.90
2018-09-10T01:27:55.591Z,93.10
2018-09-10T01:30:24.566Z,93.00
2018-09-10T01:32:53.583Z,91.90
2018-09-10T01:35:22.641Z,91.70
2018-09-10T01:37:51.638Z,92.10
2018-09-10T01:40:20.610Z,91.70
2018-09-10T01:42:49.597Z,91.90
2018-09-10T01:45:18.584Z,92.30
2018-09-10T01:47:47.656Z,92.40
2018-09-10T01:50:16.675Z,92.40
2018-09-10T01:52:45.650Z,92.30
2018-09-10T01:55:14.641Z,92.60
2018-09-10T01:57:43.621Z,92.20
2018-09-10T02:00:12.584Z,91.90
2018-09-10T02:02:41.942Z,92.10
2018-09-10T02:05:11.049Z,92.10
2018-09-10T02:07:40.056Z,92.10
2018-09-10T02:10:09.101Z,91.90
2018-09-10T02:12:38.085Z,92.10
2018-09-10T02:15:07.235Z,92.40
2018-09-10T02:17:36.284Z,92.60
2018-09-10T02:20:05.342Z,92.60
2018-09-10T02:22:34.321Z,92.70
2018-09-10T02:25:03.417Z,92.60
2018-09-10T02:27:32.499Z,92.00
2018-09-10T02:30:01.525Z,91.10
2018-09-10T02:32:30.515Z,91.40
2018-09-10T02:34:59.505Z,92.20
2018-09-10T02:37:28.488Z,92.40
2018-09-10T02:39:57.515Z,92.50
2018-09-10T02:42:26.509Z,92.50
2018-09-10T02:44:55.519Z,92.60
2018-09-10T02:47:24.493Z,92.90
2018-09-10T02:49:53.508Z,93.60
2018-09-10T02:52:22.607Z,93.70
2018-09-10T02:54:51.691Z,93.40
2018-09-10T02:57:20.729Z,93.30
2018-09-10T02:59:49.716Z,93.10
2018-09-10T03:02:18.692Z,93.00
2018-09-10T03:04:47.682Z,93.00
2018-09-10T03:07:22.222Z,93.00
2018-09-10T03:09:51.250Z,93.10
2018-09-10T03:12:20.384Z,92.80
2018-09-10T03:14:49.405Z,92.80
2018-09-10T03:17:18.349Z,93.10
2018-09-10T03:19:47.369Z,93.60
2018-09-10T03:22:16.446Z,93.50
2018-09-10T03:24:45.469Z,93.40
2018-09-10T03:27:14.557Z,93.40
2018-09-10T03:29:43.580Z,93.20
2018-09-10T03:32:12.554Z,93.30
2018-09-10T03:34:41.552Z,93.20
2018-09-10T03:37:10.576Z,93.30
2018-09-10T03:39:39.607Z,93.60
2018-09-10T03:42:08.566Z,94.00
2018-09-10T03:44:37.579Z,94.20
2018-09-10T03:47:06.561Z,94.30
2018-09-10T03:49:35.555Z,94.20
2018-09-10T03:52:04.630Z,93.70
2018-09-10T03:54:33.619Z,93.90
2018-09-10T03:57:02.561Z,94.30
2018-09-10T03:59:31.537Z,94.80
2018-09-10T04:02:00.514Z,94.70
2018-09-10T04:04:29.591Z,94.90
2018-09-10T04:06:58.589Z,94.90
2018-09-10T04:09:27.611Z,94.90
2018-09-10T04:11:56.604Z,95.30
2018-09-10T04:14:25.582Z,95.20
2018-09-10T04:16:54.630Z,95.10
2018-09-10T04:19:23.600Z,95.30
2018-09-10T04:21:52.589Z,95.40
2018-09-10T04:24:21.593Z,95.30
2018-09-10T04:26:50.585Z,95.20
2018-09-10T04:29:19.553Z,95.10
2018-09-10T04:31:48.600Z,95.20
2018-09-10T04:34:17.993Z,95.20
2018-09-10T04:36:46.979Z,95.10
2018-09-10T04:39:16.718Z,94.90
2018-09-10T04:41:45.696Z,94.70
2018-09-10T04:44:14.735Z,94.80
2018-09-10T04:46:43.917Z,94.90
2018-09-10T04:49:18.612Z,94.90
2018-09-10T04:51:55.560Z,94.90
2018-09-10T04:54:30.412Z,95.00
2018-09-10T04:57:04.933Z,95.00
2018-09-10T04:59:39.418Z,95.00
2018-09-10T05:02:09.164Z,95.00
2018-09-10T05:04:38.820Z,95.00
2018-09-10T05:07:08.031Z,95.10
2018-09-10T05:09:37.139Z,95.10
2018-09-10T05:12:06.285Z,95.10
2018-09-10T05:14:35.227Z,94.80
2018-09-10T05:17:04.333Z,94.70
2018-09-10T05:19:34.264Z,94.80
2018-09-10T05:22:03.368Z,94.70
2018-09-10T05:24:32.344Z,94.60
2018-09-10T05:27:01.323Z,94.70
2018-09-10T05:29:30.345Z,94.80
2018-09-10T05:32:00.883Z,94.60
2018-09-10T05:34:29.982Z,94.60
2018-09-10T05:39:26.749Z,94.40
2018-09-10T05:41:55.756Z,94.30
2018-09-10T05:44:24.713Z,94.30
2018-09-10T05:46:54.123Z,94.40
2018-09-10T05:49:23.138Z,94.30
2018-09-10T05:51:52.638Z,94.00
2018-09-10T05:54:21.633Z,93.40
2018-09-10T05:56:50.635Z,93.00
2018-09-10T05:59:19.627Z,92.30
2018-09-10T06:01:48.783Z,91.90
2018-09-10T06:04:17.757Z,91.80
2018-09-10T06:06:46.751Z,91.90
2018-09-10T06:09:15.768Z,92.00
2018-09-10T06:11:44.768Z,91.90
2018-09-10T06:14:14.010Z,91.70
2018-09-10T06:16:43.136Z,91.70
2018-09-10T06:19:12.015Z,91.50
2018-09-10T06:21:41.029Z,91.30
2018-09-10T06:24:10.880Z,91.40
2018-09-10T06:26:39.871Z,91.60
2018-09-10T06:29:08.946Z,91.50
2018-09-10T06:31:37.971Z,91.50
2018-09-10T06:34:06.981Z,91.50
2018-09-10T06:36:35.970Z,91.60
2018-09-10T06:39:08.842Z,91.50
2018-09-10T06:41:37.858Z,91.40
2018-09-10T06:44:06.922Z,91.10
2018-09-10T06:46:36.065Z,91.00
2018-09-10T06:49:05.167Z,90.90
2018-09-10T06:51:34.153Z,90.80
2018-09-10T06:54:03.219Z,90.70
2018-09-10T06:56:32.217Z,90.70
2018-09-10T06:59:01.200Z,90.40
2018-09-10T07:01:30.208Z,90.30
2018-09-10T07:03:59.170Z,89.90
2018-09-10T07:06:28.245Z,88.80
2018-09-10T07:08:57.346Z,88.40
2018-09-10T07:11:26.401Z,88.20
2018-09-10T07:13:55.379Z,88.50
2018-09-10T07:16:25.227Z,89.30
2018-09-10T07:18:54.290Z,88.30
2018-09-10T07:21:23.232Z,88.80
2018-09-10T07:23:52.203Z,89.00
2018-09-10T07:26:21.920Z,89.00
2018-09-10T07:28:50.942Z,89.30
2018-09-10T07:31:19.963Z,88.80
2018-09-10T07:33:48.935Z,89.20
2018-09-10T07:36:18.723Z,89.80
2018-09-10T07:38:47.798Z,89.40
2018-09-10T07:41:16.788Z,90.00
2018-09-10T07:43:46.331Z,90.00
2018-09-10T07:46:15.190Z,90.00
2018-09-10T07:48:44.275Z,90.20
2018-09-10T07:51:13.314Z,90.20
2018-09-10T07:53:42.302Z,90.10
2018-09-10T07:56:11.261Z,89.40
2018-09-10T07:58:40.273Z,89.00
2018-09-10T08:01:09.244Z,88.50
2018-09-10T08:03:38.291Z,89.00
2018-09-10T08:06:07.273Z,89.40
2018-09-10T08:08:36.291Z,89.60
2018-09-10T08:11:05.271Z,89.90
2018-09-10T08:13:34.293Z,90.00
2018-09-10T08:16:03.342Z,90.00
2018-09-10T08:18:32.326Z,88.90
2018-09-10T08:21:01.309Z,90.00
2018-09-10T08:23:31.405Z,89.10
2018-09-10T08:26:00.423Z,89.40
2018-09-10T08:28:29.415Z,89.60
2018-09-10T08:30:58.410Z,89.40
2018-09-10T08:33:27.401Z,89.10
2018-09-10T08:35:56.357Z,89.00
2018-09-10T08:38:25.343Z,88.30
2018-09-10T08:40:54.586Z,87.70
2018-09-10T08:43:23.583Z,87.30
2018-09-10T08:45:52.572Z,86.80
2018-09-10T08:48:21.629Z,86.30
2018-09-10T08:50:50.556Z,86.30
2018-09-10T08:53:23.549Z,86.40
2018-09-10T08:55:52.797Z,83.20
2018-09-10T08:58:21.565Z,82.90
2018-09-10T09:00:50.581Z,82.40
2018-09-10T09:03:19.608Z,81.70
2018-09-10T09:05:48.655Z,79.80
2018-09-10T09:08:17.639Z,78.50
2018-09-10T09:10:46.822Z,78.10
2018-09-10T09:13:15.896Z,77.50
2018-09-10T09:15:44.939Z,76.00
2018-09-10T09:18:13.948Z,74.20
2018-09-10T09:20:42.946Z,73.30
2018-09-10T09:23:11.978Z,71.70
2018-09-10T09:25:41.003Z,71.10
2018-09-10T09:28:10.012Z,71.10
2018-09-10T09:30:39.045Z,70.90
2018-09-10T09:33:08.039Z,69.90
2018-09-10T09:35:42.490Z,69.80
2018-09-10T09:38:16.792Z,69.00
2018-09-10T09:40:51.138Z,69.60
2018-09-10T09:43:25.348Z,69.80
2018-09-10T09:45:59.747Z,69.00
2018-09-10T09:48:28.730Z,68.30
2018-09-10T09:50:57.930Z,68.30
2018-09-10T09:53:26.996Z,69.10
2018-09-10T09:55:56.006Z,68.70
2018-09-10T09:58:25.152Z,68.70
2018-09-10T10:00:56.433Z,68.10
2018-09-10T10:03:30.928Z,67.10
2018-09-10T10:05:59.918Z,67.20
2018-09-10T10:08:28.919Z,67.10
2018-09-10T10:10:57.956Z,66.30
2018-09-10T10:13:26.988Z,66.80
2018-09-10T10:15:56.045Z,66.70
2018-09-10T10:18:25.043Z,67.00
2018-09-10T10:20:54.060Z,66.10
2018-09-10T10:23:23.072Z,66.10
2018-09-10T10:25:52.115Z,66.60
2018-09-10T10:28:21.326Z,66.40
2018-09-10T10:30:50.280Z,65.30
2018-09-10T10:33:19.964Z,65.20
2018-09-10T10:35:48.987Z,64.80
2018-09-10T10:38:32.768Z,65.10
2018-09-10T10:41:01.838Z,65.10
2018-09-10T10:43:30.840Z,64.90
2018-09-10T10:45:59.862Z,64.90
2018-09-10T10:48:28.860Z,64.90
2018-09-10T10:50:57.944Z,64.40
2018-09-10T10:53:26.922Z,64.70
2018-09-10T10:55:55.928Z,64.70
2018-09-10T10:58:24.954Z,64.40
2018-09-10T11:00:53.965Z,64.70
2018-09-10T11:03:22.982Z,64.10
2018-09-10T11:05:52.109Z,64.90
2018-09-10T11:08:21.104Z,65.10
2018-09-10T11:10:50.106Z,64.80
2018-09-10T11:13:19.090Z,64.10
2018-09-10T11:15:48.083Z,63.60
2018-09-10T11:18:17.073Z,64.00
2018-09-10T11:20:46.075Z,64.10
2018-09-10T11:23:15.114Z,63.50
2018-09-10T11:25:44.081Z,63.80
2018-09-10T11:28:13.073Z,63.30
2018-09-10T11:30:42.027Z,63.60
2018-09-10T11:33:11.011Z,64.00
2018-09-10T11:35:39.983Z,63.20
2018-09-10T11:38:08.949Z,63.40
2018-09-10T11:40:37.962Z,64.00
2018-09-10T11:43:06.960Z,64.60
2018-09-10T11:45:36.114Z,64.10
2018-09-10T11:48:05.348Z,63.90
2018-09-10T11:50:34.614Z,63.70
2018-09-10T11:53:03.647Z,63.20
2018-09-10T11:55:32.713Z,63.40
2018-09-10T11:58:01.686Z,63.80
2018-09-10T12:00:30.646Z,63.80
2018-09-10T12:02:59.695Z,64.10
2018-09-10T12:05:28.696Z,64.30
2018-09-10T12:07:57.696Z,64.10
2018-09-10T12:10:26.680Z,63.80
2018-09-10T12:12:55.688Z,64.20
2018-09-10T12:15:24.650Z,63.90
2018-09-10T12:17:53.628Z,63.60
2018-09-10T12:20:22.586Z,63.50
2018-09-10T12:22:51.567Z,63.60
2018-09-10T12:25:20.522Z,63.60
2018-09-10T12:27:49.550Z,63.90
2018-09-10T12:30:18.526Z,63.80
2018-09-10T12:32:47.508Z,64.10
2018-09-10T12:35:16.484Z,64.00
2018-09-10T12:37:45.447Z,64.20
2018-09-10T12:40:14.470Z,64.80
2018-09-10T12:42:43.466Z,64.90
2018-09-10T12:45:12.444Z,64.70
2018-09-10T12:47:41.421Z,64.80
2018-09-10T12:50:10.465Z,64.70
2018-09-10T12:52:40.110Z,64.70
2018-09-10T12:55:09.088Z,64.70
2018-09-10T12:57:38.066Z,64.60
2018-09-10T13:00:07.299Z,63.60
2018-09-10T13:02:36.351Z,63.10
2018-09-10T13:05:05.361Z,63.00
2018-09-10T13:07:34.388Z,62.20
2018-09-10T13:10:03.392Z,62.20
2018-09-10T13:12:32.372Z,61.70
2018-09-10T13:15:01.345Z,61.50
2018-09-10T13:17:30.346Z,61.20
2018-09-10T13:19:59.310Z,61.10
2018-09-10T13:22:28.307Z,61.10
2018-09-10T13:24:57.301Z,61.00
2018-09-10T13:27:26.262Z,61.40
2018-09-10T13:29:55.264Z,61.20
2018-09-10T13:32:24.249Z,61.00
2018-09-10T13:34:53.265Z,61.40
2018-09-10T13:37:23.272Z,61.40
2018-09-10T13:39:52.292Z,61.50
2018-09-10T13:42:21.264Z,61.50
2018-09-10T13:44:50.259Z,62.30
2018-09-10T13:47:19.224Z,61.80
2018-09-10T13:49:48.238Z,61.90
2018-09-10T13:52:17.300Z,61.60
2018-09-10T13:54:46.269Z,61.70
2018-09-10T13:57:15.228Z,62.20
2018-09-10T13:59:44.269Z,62.50
2018-09-10T14:02:13.216Z,63.10
2018-09-10T14:04:42.330Z,63.40
2018-09-10T14:07:11.316Z,63.80
2018-09-10T14:09:40.328Z,63.90
2018-09-10T14:12:09.282Z,64.10
2018-09-10T14:14:38.287Z,64.60
2018-09-10T14:17:07.328Z,64.90
2018-09-10T14:19:36.313Z,65.00
2018-09-10T14:22:05.691Z,65.40
2018-09-10T14:24:38.964Z,65.30
2018-09-10T14:27:08.217Z,65.40
2018-09-10T14:29:39.939Z,66.00
2018-09-10T14:32:10.820Z,66.40
2018-09-10T14:34:39.880Z,66.60
2018-09-10T14:37:09.792Z,66.90
2018-09-10T14:39:38.818Z,67.20
2018-09-10T14:42:07.844Z,67.10
2018-09-10T14:44:36.829Z,67.50
2018-09-10T14:47:05.835Z,67.80
2018-09-10T14:49:34.838Z,68.00
2018-09-10T14:52:03.898Z,68.20
2018-09-10T14:54:32.885Z,67.90
2018-09-10T14:57:01.878Z,68.00
2018-09-10T14:59:30.875Z,67.90
2018-09-10T15:01:59.829Z,67.50
2018-09-10T15:04:31.644Z,68.30
2018-09-10T15:07:00.634Z,68.50
2018-09-10T15:09:29.671Z,68.30
2018-09-10T15:11:58.666Z,69.20
2018-09-10T15:14:27.738Z,69.40
2018-09-10T15:16:56.650Z,68.90
2018-09-10T15:19:25.636Z,68.50
2018-09-10T15:21:54.695Z,68.40
2018-09-10T15:24:23.697Z,68.30
2018-09-10T15:26:52.673Z,68.00
2018-09-10T15:29:21.689Z,68.20
2018-09-10T15:31:50.714Z,67.50
2018-09-10T15:34:19.779Z,67.40
2018-09-10T15:36:48.778Z,67.60
2018-09-10T15:39:17.762Z,67.50
2018-09-10T15:41:47.071Z,68.00
2018-09-10T15:44:16.115Z,67.80
2018-09-10T15:46:45.233Z,67.20
2018-09-10T15:49:14.306Z,67.30
2018-09-10T15:51:43.357Z,67.30
2018-09-10T15:54:12.351Z,67.30
2018-09-10T15:56:41.524Z,67.10
2018-09-10T15:59:10.527Z,67.40
2018-09-10T16:01:39.556Z,68.00
2018-09-10T16:04:08.547Z,68.00
2018-09-10T16:06:37.622Z,68.10
2018-09-10T16:09:07.474Z,68.60
2018-09-10T16:11:36.569Z,68.20
2018-09-10T16:14:05.550Z,68.70
2018-09-10T16:16:34.594Z,69.10
2018-09-10T16:19:03.562Z,68.80
2018-09-10T16:21:32.517Z,68.60
2018-09-10T16:24:01.508Z,68.70
2018-09-10T16:26:30.482Z,69.00
2018-09-10T16:28:59.532Z,68.90
2018-09-10T16:31:28.530Z,68.90
2018-09-10T16:33:57.567Z,69.00
2018-09-10T16:36:26.527Z,69.00
2018-09-10T16:38:55.484Z,68.90
2018-09-10T16:41:24.499Z,68.80
2018-09-10T16:43:53.469Z,69.80
2018-09-10T16:46:22.484Z,69.50
2018-09-10T16:48:51.439Z,69.50
2018-09-10T16:51:20.521Z,69.50
2018-09-10T16:53:49.577Z,69.50
2018-09-10T16:56:19.993Z,69.40
2018-09-10T16:58:51.105Z,69.30
2018-09-10T17:01:20.145Z,69.50
2018-09-10T17:03:49.147Z,69.60
2018-09-10T17:06:18.120Z,69.50
2018-09-10T17:08:47.797Z,69.60
2018-09-10T17:11:16.811Z,69.50
2018-09-10T17:13:45.752Z,69.30
2018-09-10T17:16:14.709Z,69.10
2018-09-10T17:18:43.715Z,69.30
2018-09-10T17:21:15.289Z,69.30
2018-09-10T17:23:44.312Z,69.20
2018-09-10T17:26:13.264Z,69.40
2018-09-10T17:28:45.403Z,69.60
2018-09-10T17:31:14.481Z,69.60
2018-09-10T17:33:46.152Z,69.80
2018-09-10T17:36:15.134Z,70.30
2018-09-10T17:38:44.570Z,70.70
2018-09-10T17:41:13.541Z,71.20
2018-09-10T17:43:43.848Z,71.70
2018-09-10T17:46:13.587Z,72.20
2018-09-10T17:48:43.028Z,72.70
2018-09-10T17:51:12.207Z,72.70
2018-09-10T17:53:42.064Z,72.60
2018-09-10T17:56:11.335Z,73.00
2018-09-10T17:58:40.446Z,73.30
2018-09-10T18:01:09.500Z,73.50
2018-09-10T18:03:38.485Z,73.70
2018-09-10T18:06:07.441Z,73.80
2018-09-10T18:08:36.428Z,74.10
2018-09-10T18:11:06.351Z,74.10
2018-09-10T18:13:35.408Z,73.90
2018-09-10T18:16:05.147Z,74.20
2018-09-10T18:18:35.012Z,74.60
2018-09-10T18:21:04.173Z,74.90
2018-09-10T18:23:33.159Z,75.00
2018-09-10T18:26:02.160Z,74.70
2018-09-10T18:28:32.229Z,74.80
2018-09-10T18:31:01.341Z,75.00
2018-09-10T18:33:30.363Z,75.20
2018-09-10T18:35:59.604Z,75.40
2018-09-10T18:38:28.634Z,75.70
2018-09-10T18:40:57.603Z,76.00
2018-09-10T18:43:27.114Z,76.10
2018-09-10T18:45:56.098Z,76.00
2018-09-10T18:48:25.091Z,76.10
2018-09-10T18:50:56.111Z,75.90
2018-09-10T18:53:25.106Z,75.70
2018-09-10T18:55:54.083Z,75.70
2018-09-10T18:58:23.686Z,75.60
2018-09-10T19:00:55.406Z,75.70
2018-09-10T19:03:24.351Z,75.70
2018-09-10T19:05:53.331Z,75.90
2018-09-10T19:08:22.294Z,76.30
2018-09-10T19:10:51.337Z,77.40
2018-09-10T19:13:20.548Z,77.00
2018-09-10T19:15:49.614Z,77.10
2018-09-10T19:18:19.117Z,77.30
2018-09-10T19:20:49.975Z,77.90
2018-09-10T19:23:18.983Z,77.60
2018-09-10T19:25:48.210Z,77.40
2018-09-10T19:28:17.606Z,77.20
2018-09-10T19:30:47.453Z,78.30
2018-09-10T19:33:16.465Z,78.00
2018-09-10T19:35:46.273Z,78.20
2018-09-10T19:38:16.386Z,78.80
2018-09-10T19:40:45.371Z,79.30
2018-09-10T19:43:14.356Z,79.70
2018-09-10T19:45:44.333Z,79.60
2018-09-10T19:48:13.343Z,79.60
2018-09-10T19:50:42.360Z,79.60
2018-09-10T19:53:11.575Z,78.80
2018-09-10T19:55:41.233Z,78.00
2018-09-10T19:58:10.309Z,78.60
2018-09-10T20:00:39.315Z,79.10
2018-09-10T20:03:08.312Z,79.60
2018-09-10T20:05:37.427Z,80.00
2018-09-10T20:08:06.646Z,80.30
2018-09-10T20:10:35.979Z,80.60
2018-09-10T20:13:05.017Z,81.10
2018-09-10T20:15:34.659Z,81.30
2018-09-10T20:18:03.634Z,81.70
2018-09-10T20:20:32.667Z,81.60
2018-09-10T20:23:03.859Z,81.30
2018-09-10T20:25:33.052Z,81.40
2018-09-10T20:28:02.085Z,81.80
2018-09-10T20:30:31.163Z,80.50
2018-09-10T20:33:00.111Z,81.40
2018-09-10T20:35:29.760Z,81.70
2018-09-10T20:37:58.814Z,81.90
2018-09-10T20:40:27.815Z,82.50
2018-09-10T20:42:56.765Z,83.50
2018-09-10T20:45:27.878Z,82.90
2018-09-10T20:47:56.847Z,83.10
2018-09-10T20:50:25.890Z,83.50
2018-09-10T20:52:54.929Z,83.60
2018-09-10T20:55:23.990Z,83.80
2018-09-10T20:57:52.993Z,83.80
2018-09-10T21:00:21.993Z,83.90
2018-09-10T21:02:50.964Z,83.90
2018-09-10T21:05:19.911Z,83.80
2018-09-10T21:07:48.983Z,84.10
2018-09-10T21:10:17.956Z,84.10
2018-09-10T21:12:46.943Z,84.20
2018-09-10T21:15:15.987Z,84.20
2018-09-10T21:17:44.943Z,84.60
2018-09-10T21:20:13.981Z,84.60
2018-09-10T21:22:42.958Z,84.90
2018-09-10T21:25:11.897Z,85.00
2018-09-10T21:27:40.976Z,85.20
2018-09-10T21:30:09.971Z,85.40
2018-09-10T21:32:38.988Z,85.80
2018-09-10T21:35:07.951Z,85.60
2018-09-10T21:37:36.929Z,85.90
2018-09-10T21:40:06.209Z,86.20
2018-09-10T21:42:35.261Z,86.10
2018-09-10T21:45:04.234Z,86.10
2018-09-10T21:47:33.232Z,86.20
2018-09-10T21:50:02.178Z,87.00
2018-09-10T21:52:31.164Z,86.80
2018-09-10T21:55:00.166Z,87.50
2018-09-10T21:57:29.173Z,87.60
2018-09-10T21:59:58.200Z,88.00
2018-09-10T22:02:27.180Z,88.20
2018-09-10T22:04:56.119Z,88.50
2018-09-10T22:07:25.224Z,88.60
2018-09-10T22:09:54.285Z,88.80
2018-09-10T22:12:23.293Z,88.50
2018-09-10T22:14:52.263Z,88.20
2018-09-10T22:17:21.256Z,87.40
2018-09-10T22:19:50.249Z,87.50
2018-09-10T22:22:19.928Z,86.50
2018-09-10T22:24:48.925Z,87.10
2018-09-10T22:27:18.940Z,87.90
2018-09-10T22:29:47.954Z,87.50
2018-09-10T22:32:16.941Z,87.10
2018-09-10T22:34:45.900Z,86.50
2018-09-10T22:37:14.894Z,86.60
2018-09-10T22:39:43.853Z,87.40
2018-09-10T22:42:12.954Z,87.70
2018-09-10T22:44:41.942Z,88.20
2018-09-10T22:47:10.908Z,87.80
2018-09-10T22:49:39.878Z,87.40
2018-09-10T22:52:08.907Z,88.40
2018-09-10T22:54:37.908Z,88.00
2018-09-10T22:57:06.866Z,87.60
2018-09-10T22:59:35.830Z,87.60
2018-09-10T23:02:05.370Z,87.30
2018-09-10T23:04:34.433Z,87.30
2018-09-10T23:07:03.582Z,87.30
2018-09-10T23:09:32.584Z,87.30
2018-09-10T23:12:01.549Z,87.30
2018-09-10T23:14:30.517Z,87.20
2018-09-10T23:16:59.487Z,87.20
2018-09-10T23:19:28.549Z,86.80
2018-09-10T23:21:57.529Z,86.70
2018-09-10T23:24:26.500Z,86.80
2018-09-10T23:26:55.479Z,86.70
2018-09-10T23:29:24.489Z,86.60
2018-09-10T23:31:53.543Z,86.30
2018-09-10T23:34:22.664Z,86.60
2018-09-10T23:36:51.633Z,86.60
2018-09-10T23:39:20.700Z,86.70
2018-09-10T23:41:49.791Z,86.60
2018-09-10T23:44:18.789Z,87.50
2018-09-10T23:46:47.747Z,86.70
2018-09-10T23:49:16.737Z,86.90
2018-09-10T23:51:45.695Z,86.70
2018-09-10T23:54:14.673Z,86.60
2018-09-10T23:56:43.710Z,86.60
2018-09-10T23:59:12.774Z,86.70
